• Join FlightAware (Why Join?)
  • Login
  • US Flag 
02:57PM EDT


 

Airport Tracker/Info


-or-


 

Live Flight TrackerFlight Track Log ✈ UAL274 ✈ 27-Aug-2013 ✈ KIAH - KDEN

Flight Track Log - Related Links

Times and Time Zones

All times are in EDT time to prevent confusion due to time zone crossing. See the UAL274 flight status page for this flight to view local times or setup timezone preferences in your user account.

Time Position Orientation Groundspeed Altitude Reporting Facility
EDT Latitude Longitude Course Direction KTS MPH feet Rate Location/Type
10:35PM 29.9558 -95.3492 334° Northwest 169 194 900  Level Houston Center
10:36PM 29.9711 -95.3761 303° West 198 228 1,900 1,260 Climbing Houston Center
10:37PM 30.0206 -95.3819 354° North 239 275 2,900 2,460 Climbing Houston Center
10:38PM 30.2890 -95.5119 332° Northwest  Level FlightAware Approximate
10:38PM 30.0956 -95.3933 353° North 261 300 6,300  Level Houston Center
10:39PM 30.3914 -95.5730 334° Northwest  Level FlightAware Approximate
10:39PM 30.1697 -95.4256 339° North 286 329 9,000  Level Houston Center
10:40PM 30.4953 -95.6307 334° Northwest  Level FlightAware Approximate
10:40PM 30.2436 -95.4706 332° Northwest 299 344 10,700  Level Houston Center
10:41PM 30.3347 -95.5269 332° Northwest 365 420 11,200 1,560 Climbing Houston Center
10:42PM 30.4328 -95.5894 331° Northwest 390 449 13,900 2,160 Climbing Houston Center
10:43PM 30.5292 -95.6450 334° Northwest 392 451 15,700 1,080 Climbing Houston Center
10:44PM 30.6356 -95.7036 335° Northwest 414 476 16,200 1,680 Climbing Houston Center
10:45PM 30.7400 -95.7642 334° Northwest 423 487 19,200 2,280 Climbing Houston Center
10:46PM 30.8617 -95.8269 336° Northwest 403 464 20,900 1,680 Climbing Houston Center
10:47PM 30.9697 -95.8847 335° Northwest 413 475 22,700 1,680 Climbing Houston Center
10:48PM 31.0794 -95.9450 335° Northwest 426 490 24,300 900 Climbing Houston Center
10:49PM 31.1992 -95.9967 340° North 451 519 24,600 1,020 Climbing Houston Center
10:50PM 31.3219 -96.0439 342° North 462 532 26,400 1,500 Climbing Houston Center
10:51PM 31.4364 -96.0881 342° North 459 528 27,700 720 Climbing Houston Center
10:52PM 31.5453 -96.1750 326° Northwest 475 547 27,900 120 Climbing Houston Center
10:53PM 31.6497 -96.2803 319° Northwest 490 564 28,000 420 Climbing Houston Center
10:54PM 31.7708 -96.4067 318° Northwest 497 572 28,800 900 Climbing Fort Worth Center
10:55PM 31.8739 -96.5131 319° Northwest 497 572 29,900 1,140 Climbing Fort Worth Center
10:56PM 31.9769 -96.6175 319° Northwest 497 572 31,100 1,740 Climbing Fort Worth Center
10:57PM 32.0694 -96.7097 320° Northwest 468 539 33,400 1,200 Climbing Fort Worth Center
10:58PM 32.1639 -96.8072 319° Northwest 452 520 33,500 60 Climbing Fort Worth Center
10:59PM 32.2625 -96.9072 319° Northwest 452 520 33,600 240 Climbing Fort Worth Center
11:00PM 32.3631 -97.0100 319° Northwest 463 533 34,000 180 Climbing Fort Worth Center
11:01PM 32.4594 -97.1106 319° Northwest 463 533 34,000  Level Fort Worth Center
11:02PM 32.5597 -97.2139 319° Northwest 463 533 34,000  Level Fort Worth Center
11:03PM 32.6558 -97.3147 319° Northwest 463 533 34,000  Level Fort Worth Center
11:04PM 32.7519 -97.4183 318° Northwest 463 533 34,000  Level Fort Worth Center
11:05PM 32.8522 -97.5222 319° Northwest 468 539 34,000  Level Fort Worth Center
11:06PM 32.9542 -97.6239 320° Northwest 468 539 34,000  Level Fort Worth Center
11:07PM 33.0417 -97.7133 319° Northwest 468 539 34,000  Level Fort Worth Center
11:08PM 33.1417 -97.8178 319° Northwest 468 539 34,000  Level Fort Worth Center
11:09PM 33.2394 -97.9200 319° Northwest 468 539 34,000  Level Fort Worth Center
11:10PM 33.3369 -98.0225 319° Northwest 463 533 34,000  Level Fort Worth Center
11:11PM 33.4325 -98.1253 318° Northwest 463 533 34,000  Level Fort Worth Center
11:12PM 33.5300 -98.2283 319° Northwest 463 533 34,000  Level Fort Worth Center
11:13PM 33.6314 -98.3339 319° Northwest 469 540 34,000  Level Fort Worth Center
11:14PM 33.7331 -98.4400 319° Northwest 476 548 34,000  Level Fort Worth Center
11:15PM 33.8300 -98.5461 318° Northwest 476 548 34,000  Level Fort Worth Center
11:16PM 33.9250 -98.6550 316° Northwest 471 542 34,000  Level Fort Worth Center
11:17PM 34.0264 -98.7567 320° Northwest 471 542 34,000  Level Fort Worth Center
11:18PM 34.1314 -98.8764 317° Northwest 465 535 34,000  Level Fort Worth Center
11:19PM 34.2303 -98.9836 318° Northwest 470 541 34,000  Level Fort Worth Center
11:20PM 34.3289 -99.0908 318° Northwest 470 541 34,000  Level Fort Worth Center
11:21PM 34.4153 -99.1781 320° Northwest 462 532 34,000  Level Fort Worth Center
11:22PM 34.5139 -99.2886 317° Northwest 462 532 34,000  Level Fort Worth Center
11:23PM 34.6103 -99.3942 318° Northwest 462 532 34,000  Level Fort Worth Center
11:24PM 34.7067 -99.5050 317° Northwest 470 541 34,000  Level Fort Worth Center
11:26PM 34.9019 -99.7194 318° Northwest 471 542 34,000  Level Albuquerque Center
11:27PM 35.0000 -99.8292 318° Northwest 473 544 34,000  Level Albuquerque Center
11:28PM 35.0978 -99.9378 318° Northwest 473 544 34,000  Level Albuquerque Center
11:29PM 35.1947 -100.0489 317° Northwest 474 545 34,000  Level Albuquerque Center
11:30PM 35.2958 -100.1558 319° Northwest 475 547 34,000  Level Albuquerque Center
11:31PM 35.4067 -100.2517 325° Northwest 481 554 34,000  Level Albuquerque Center
11:32PM 35.5178 -100.3475 325° Northwest 483 556 34,000  Level Albuquerque Center
11:33PM 35.6278 -100.4436 325° Northwest 482 555 34,000  Level Albuquerque Center
11:34PM 35.7600 -100.5578 325° Northwest 481 554 34,000  Level Albuquerque Center
11:35PM 35.8667 -100.6539 324° Northwest 477 549 34,000  Level Albuquerque Center
11:36PM 35.9744 -100.7500 324° Northwest 475 547 34,000  Level Albuquerque Center
11:37PM 36.0911 -100.8494 325° Northwest 491 565 34,000  Level Albuquerque Center
11:38PM 36.2017 -100.9469 325° Northwest 489 563 34,000  Level Albuquerque Center
11:39PM 36.3061 -101.0400 324° Northwest 486 559 34,000  Level Albuquerque Center
11:40PM 36.4286 -101.1492 324° Northwest 485 558 34,000  Level Albuquerque Center
11:41PM 36.5333 -101.2442 324° Northwest 485 558 34,000  Level Albuquerque Center
11:42PM 36.6394 -101.3394 324° Northwest 486 559 34,000  Level Kansas City Center
11:43PM 36.7625 -101.4500 324° Northwest 487 560 34,000  Level Kansas City Center
11:44PM 36.8681 -101.5456 324° Northwest 487 560 34,000  Level Kansas City Center
11:45PM 36.9733 -101.6414 324° Northwest 488 562 34,000  Level Kansas City Center
11:46PM 37.0967 -101.7531 324° Northwest 488 562 34,000  Level Kansas City Center
11:47PM 37.2028 -101.8497 324° Northwest 489 563 34,000  Level Kansas City Center
11:48PM 37.3078 -101.9467 324° Northwest 488 562 34,000  Level Kansas City Center
11:49PM 37.4308 -102.0608 324° Northwest 490 564 34,000  Level Kansas City Center
11:50PM 37.5372 -102.1583 324° Northwest 492 566 34,000  Level Kansas City Center
11:51PM 37.6403 -102.2558 323° Northwest 485 558 34,000  Level Denver Center
11:53PM 37.7625 -102.3731 323° Northwest 492 566 34,000  Level Denver Center
11:54PM 37.8792 -102.5047 318° Northwest 492 566 34,000  Level Denver Center
11:55PM 38.0100 -102.6503 319° Northwest 491 565 34,000  Level Denver Center
11:56PM 38.1058 -102.7594 318° Northwest 495 570 34,000  Level Denver Center
11:57PM 38.2369 -102.9064 319° Northwest 493 567 34,000  Level Denver Center
11:58PM 38.3353 -103.0172 319° Northwest 494 568 34,000  Level Denver Center
11:59PM 38.4503 -103.1475 318° Northwest 494 568 34,000 -240 Level Denver Center
12:00AM 38.5456 -103.2600 317° Northwest 490 564 33,600 -1,140 Descending Denver Center
12:01AM 38.6483 -103.3778 318° Northwest 477 549 31,700 -1,980 Descending Denver Center
12:02AM 38.7672 -103.5117 319° Northwest 481 554 29,300 -1,980 Descending Denver Center
12:03AM 38.8708 -103.6300 318° Northwest 489 563 27,300 -1,980 Descending Denver Center
12:04AM 38.9725 -103.7503 317° Northwest 495 570 25,300 -1,980 Descending Denver Center
12:05AM 39.0731 -103.8667 318° Northwest 491 565 23,400 -1,620 Descending Denver Center
12:06AM 39.1656 -103.9889 314° West 478 550 22,100 -1,620 Descending Denver Center
12:07AM 39.2589 -104.1231 312° West 473 544 20,200 -1,980 Descending Denver Center
12:08AM 39.3639 -104.2156 326° Northwest 463 533 18,100 -2,280 Descending Denver Center
12:09AM 39.4686 -104.2944 330° Northwest 437 503 15,600 -2,100 Descending Denver Center
12:10AM 39.5647 -104.3758 327° Northwest 411 473 13,900 -1,320 Descending Denver Center
12:11AM 39.6594 -104.4517 328° Northwest 405 466 13,000 -540 Descending Denver Center
12:12AM 39.7628 -104.5281 330° Northwest 406 467 12,900 -960 Descending Denver Center
12:13AM 39.8719 -104.5206 North 399 459 11,100 -960 Descending Denver Center
12:14AM 39.9667 -104.5167 North 347 399 11,000 -780 Descending Denver TRACON
12:15AM 40.0500 -104.5333 351° North 306 352 9,600 -1,620 Descending Denver TRACON
12:16AM 40.0489 -104.6314 269° West 267 307 7,800 -1,080 Descending Denver Center
12:17AM 40.0150 -104.6825 229° Southwest 183 211 7,500 -600 Descending Denver Center
12:18AM 39.9681 -104.6856 183° South 169 194 6,700 -840 Descending Denver Center
12:19AM 39.9225 -104.6864 181° South 165 190 5,900 -720 Descending Denver Center
12:20AM 39.8800 -104.6872 181° South 163 188 5,300 -600 Descending Denver Center